This is the latest recevied weather packets stored in our database for station/object KP4FJC. If no packets are shown the sender has not sent any weather packets the latest 10 day(s).
| Time | Temp. | Humidity | Pressure | Rain* | Wind** | Luminosity | Snow |
|---|---|---|---|---|---|---|---|
| 1777382362 | 29.44° C | 70% | 1018.2 hPa | 0 mm | - | 349 W/m² | - |
| 1777382058 | 29.44° C | 70% | 1018.4 hPa | 0 mm | - | 444 W/m² | - |
| 1777381754 | 29.44° C | 69% | 1018.2 hPa | 0 mm | - | 418 W/m² | - |
| 1777381449 | 29.44° C | 72% | 1018.2 hPa | 0 mm | - | 486 W/m² | - |
| 1777381145 | 29.44° C | 74% | 1018.2 hPa | 0 mm | - | 430 W/m² | - |
| 1777380842 | 29.44° C | 72% | 1018.3 hPa | 0 mm | - | 329 W/m² | - |
| 1777380539 | 29.44° C | 73% | 1018.3 hPa | 0 mm | - | 285 W/m² | - |
| 1777380235 | 30° C | 71% | 1018 hPa | 0 mm | - | 528 W/m² | - |
| 1777379932 | 30° C | 73% | 1017.9 hPa | 0 mm | - | 445 W/m² | - |
| 1777379627 | 30° C | 75% | 1018.1 hPa | 0 mm | - | 479 W/m² | - |
| 1777379324 | 28.33° C | 79% | 1018.1 hPa | 0 mm | - | 523 W/m² | - |
| 1777379018 | 27.78° C | 82% | 1018.1 hPa | 0 mm | - | 273 W/m² | - |
| 1777378714 | 26.67° C | 85% | 1017.9 hPa | 0 mm | - | 390 W/m² | - |
| 1777378411 | 26.11° C | 87% | 1018.2 hPa | 0 mm | - | 410 W/m² | - |
| 1777378105 | 26.11° C | 88% | 1017.9 hPa | 0 mm | - | 174 W/m² | - |
| 1777377800 | 26.11° C | 89% | 1017.9 hPa | 0 mm | - | 219 W/m² | - |
| 1777377494 | 25.56° C | 90% | 1018 hPa | 0 mm | - | 169 W/m² | - |
| 1777377190 | 25° C | 90% | 1017.9 hPa | 0 mm | - | 166 W/m² | - |
| 1777376888 | 25.56° C | 90% | 1017.9 hPa | 0 mm | - | 163 W/m² | - |
| 1777376585 | 25° C | 90% | 1018 hPa | 0 mm | - | 177 W/m² | - |
| 1777376281 | 25° C | 91% | 1017.8 hPa | 0 mm | - | 166 W/m² | - |
| 1777375975 | 24.44° C | 92% | 1017.7 hPa | 0 mm | - | 120 W/m² | - |
| 1777375670 | 24.44° C | 92% | 1017.8 hPa | 0 mm | - | 95 W/m² | - |
| 1777375365 | 24.44° C | 93% | 1017.7 hPa | 0 mm | - | 83 W/m² | - |
| 1777375063 | 24.44° C | 93% | 1017.6 hPa | 0 mm | - | 96 W/m² | - |
* Rain latest hour (hover to see other rain measurements)
** Current wind speed in m/s (hover to see current wind gust speed)